Eprise, Alabama
Current Conditions -  °F | °C
As of 5:55 PM on Friday 24 Oct 2014 (Local Time) from KEDN Reporting Station
Clear Clear  
Wind Chill: 68°   Ceiling: Unl
Heat Index: 68°   Visibility: 10mi
Dew Point: 46°   Wind: 0mph
Humidity: 46%   Direction: NA
Pressure: 30"   Gusts: NA
Location:  31.3153°N, 85.8554°W
Report Text: KEDN 242255Z AUTO 00000KT 10SM CLR 20/08 A3000 RMK AO2
Loading
Personal Weather Stations






























Interactive Weather Map
Tropical Storm Tracking
New forecast layout! Learn more

10-Day Weather Forecast

Advertisements
Track Severe Weather on mobile